sensor_id;sensor_type;location;lat;lon;timestamp;temperature;humidity
76168;DHT22;64927;48.214;16.378;2024-01-15T00:00:14;3.30;58.40
76168;DHT22;64927;48.214;16.378;2024-01-15T00:02:39;3.40;58.30
76168;DHT22;64927;48.214;16.378;2024-01-15T00:05:05;3.40;58.20
76168;DHT22;64927;48.214;16.378;2024-01-15T00:07:31;3.50;57.90
76168;DHT22;64927;48.214;16.378;2024-01-15T00:09:56;3.50;57.60
76168;DHT22;64927;48.214;16.378;2024-01-15T00:12:22;3.60;57.70
76168;DHT22;64927;48.214;16.378;2024-01-15T00:14:48;3.50;58.00
76168;DHT22;64927;48.214;16.378;2024-01-15T00:17:13;3.50;58.10
76168;DHT22;64927;48.214;16.378;2024-01-15T00:19:39;3.60;57.90
76168;DHT22;64927;48.214;16.378;2024-01-15T00:22:04;3.60;58.10
76168;DHT22;64927;48.214;16.378;2024-01-15T00:24:30;3.50;58.10
76168;DHT22;64927;48.214;16.378;2024-01-15T00:26:56;3.60;58.10
76168;DHT22;64927;48.214;16.378;2024-01-15T00:29:21;3.60;58.20
76168;DHT22;64927;48.214;16.378;2024-01-15T00:31:47;3.60;58.10
76168;DHT22;64927;48.214;16.378;2024-01-15T00:34:13;3.60;58.30
76168;DHT22;64927;48.214;16.378;2024-01-15T00:36:38;3.70;58.00
76168;DHT22;64927;48.214;16.378;2024-01-15T00:39:06;3.70;58.10
76168;DHT22;64927;48.214;16.378;2024-01-15T00:41:32;3.70;57.90
76168;DHT22;64927;48.214;16.378;2024-01-15T00:43:57;3.70;57.90
76168;DHT22;64927;48.214;16.378;2024-01-15T00:46:23;3.80;57.90
76168;DHT22;64927;48.214;16.378;2024-01-15T00:48:48;3.70;57.90
76168;DHT22;64927;48.214;16.378;2024-01-15T00:51:14;3.70;58.10
76168;DHT22;64927;48.214;16.378;2024-01-15T00:53:40;3.60;58.40
76168;DHT22;64927;48.214;16.378;2024-01-15T00:56:05;3.60;58.30
76168;DHT22;64927;48.214;16.378;2024-01-15T00:58:31;3.40;59.30
76168;DHT22;64927;48.214;16.378;2024-01-15T01:00:56;3.30;58.60
76168;DHT22;64927;48.214;16.378;2024-01-15T01:03:22;3.20;59.10
76168;DHT22;64927;48.214;16.378;2024-01-15T01:05:53;3.00;59.80
76168;DHT22;64927;48.214;16.378;2024-01-15T01:08:19;2.90;60.50
76168;DHT22;64927;48.214;16.378;2024-01-15T01:10:44;2.80;61.10
76168;DHT22;64927;48.214;16.378;2024-01-15T01:13:10;2.90;61.00
76168;DHT22;64927;48.214;16.378;2024-01-15T01:15:36;3.00;60.50
76168;DHT22;64927;48.214;16.378;2024-01-15T01:18:02;3.10;60.20
76168;DHT22;64927;48.214;16.378;2024-01-15T01:20:33;3.20;60.00
76168;DHT22;64927;48.214;16.378;2024-01-15T01:22:58;3.20;60.10
76168;DHT22;64927;48.214;16.378;2024-01-15T01:25:26;3.30;59.90
76168;DHT22;64927;48.214;16.378;2024-01-15T01:27:52;3.30;59.70
76168;DHT22;64927;48.214;16.378;2024-01-15T01:30:20;3.30;60.40
76168;DHT22;64927;48.214;16.378;2024-01-15T01:32:45;3.40;60.00
76168;DHT22;64927;48.214;16.378;2024-01-15T01:35:12;3.40;59.90
76168;DHT22;64927;48.214;16.378;2024-01-15T01:37:38;3.30;60.20
76168;DHT22;64927;48.214;16.378;2024-01-15T01:40:04;3.30;60.20
76168;DHT22;64927;48.214;16.378;2024-01-15T01:42:30;3.40;60.00
76168;DHT22;64927;48.214;16.378;2024-01-15T01:44:56;3.40;58.40
76168;DHT22;64927;48.214;16.378;2024-01-15T01:47:21;3.50;57.80
76168;DHT22;64927;48.214;16.378;2024-01-15T01:49:47;3.70;56.60
76168;DHT22;64927;48.214;16.378;2024-01-15T01:52:15;3.80;56.10
76168;DHT22;64927;48.214;16.378;2024-01-15T01:54:41;3.90;55.90
76168;DHT22;64927;48.214;16.378;2024-01-15T01:57:08;3.90;55.60
76168;DHT22;64927;48.214;16.378;2024-01-15T01:59:34;3.90;56.10
76168;DHT22;64927;48.214;16.378;2024-01-15T02:02:02;4.00;55.90
76168;DHT22;64927;48.214;16.378;2024-01-15T02:04:29;4.00;55.60
76168;DHT22;64927;48.214;16.378;2024-01-15T02:06:56;3.90;55.10
76168;DHT22;64927;48.214;16.378;2024-01-15T02:09:24;3.90;55.30
76168;DHT22;64927;48.214;16.378;2024-01-15T02:11:50;3.90;55.40
76168;DHT22;64927;48.214;16.378;2024-01-15T02:14:16;3.90;55.20
76168;DHT22;64927;48.214;16.378;2024-01-15T02:16:42;4.00;54.20
76168;DHT22;64927;48.214;16.378;2024-01-15T02:19:07;4.00;53.70
76168;DHT22;64927;48.214;16.378;2024-01-15T02:21:42;4.10;53.50
76168;DHT22;64927;48.214;16.378;2024-01-15T02:24:07;4.00;53.10
76168;DHT22;64927;48.214;16.378;2024-01-15T02:26:33;4.10;52.40
76168;DHT22;64927;48.214;16.378;2024-01-15T02:29:01;4.00;51.60
76168;DHT22;64927;48.214;16.378;2024-01-15T02:31:27;4.10;51.60
76168;DHT22;64927;48.214;16.378;2024-01-15T02:33:55;4.00;51.10
76168;DHT22;64927;48.214;16.378;2024-01-15T02:36:21;4.00;51.30
76168;DHT22;64927;48.214;16.378;2024-01-15T02:38:47;3.90;51.20
76168;DHT22;64927;48.214;16.378;2024-01-15T02:41:17;3.90;51.90
76168;DHT22;64927;48.214;16.378;2024-01-15T02:43:43;3.90;51.70
76168;DHT22;64927;48.214;16.378;2024-01-15T02:46:08;3.90;51.40
76168;DHT22;64927;48.214;16.378;2024-01-15T02:48:34;3.80;51.90
76168;DHT22;64927;48.214;16.378;2024-01-15T02:51:02;3.80;51.70
76168;DHT22;64927;48.214;16.378;2024-01-15T02:53:28;3.80;51.70
76168;DHT22;64927;48.214;16.378;2024-01-15T02:55:56;3.80;51.70
76168;DHT22;64927;48.214;16.378;2024-01-15T02:58:21;3.90;51.90
76168;DHT22;64927;48.214;16.378;2024-01-15T03:00:47;3.80;51.50
76168;DHT22;64927;48.214;16.378;2024-01-15T03:03:13;3.80;51.70
76168;DHT22;64927;48.214;16.378;2024-01-15T03:05:38;3.80;51.70
76168;DHT22;64927;48.214;16.378;2024-01-15T03:08:04;3.80;51.80
76168;DHT22;64927;48.214;16.378;2024-01-15T03:10:30;3.90;51.80
76168;DHT22;64927;48.214;16.378;2024-01-15T03:13:00;3.80;51.90
76168;DHT22;64927;48.214;16.378;2024-01-15T03:15:25;3.80;52.30
76168;DHT22;64927;48.214;16.378;2024-01-15T03:17:51;3.80;52.40
76168;DHT22;64927;48.214;16.378;2024-01-15T03:20:16;3.70;52.70
76168;DHT22;64927;48.214;16.378;2024-01-15T03:22:42;3.70;52.70
76168;DHT22;64927;48.214;16.378;2024-01-15T03:25:08;3.80;52.70
76168;DHT22;64927;48.214;16.378;2024-01-15T03:27:33;3.70;52.50
76168;DHT22;64927;48.214;16.378;2024-01-15T03:30:02;3.70;52.80
76168;DHT22;64927;48.214;16.378;2024-01-15T03:32:28;3.70;52.90
76168;DHT22;64927;48.214;16.378;2024-01-15T03:34:53;3.70;53.10
76168;DHT22;64927;48.214;16.378;2024-01-15T03:37:21;3.70;53.10
76168;DHT22;64927;48.214;16.378;2024-01-15T03:39:46;3.70;53.50
76168;DHT22;64927;48.214;16.378;2024-01-15T03:42:12;3.70;53.40
76168;DHT22;64927;48.214;16.378;2024-01-15T03:44:38;3.70;53.50
76168;DHT22;64927;48.214;16.378;2024-01-15T03:47:03;3.70;53.60
76168;DHT22;64927;48.214;16.378;2024-01-15T03:49:32;3.60;53.80
76168;DHT22;64927;48.214;16.378;2024-01-15T03:51:57;3.70;54.00
76168;DHT22;64927;48.214;16.378;2024-01-15T03:54:23;3.70;53.80
76168;DHT22;64927;48.214;16.378;2024-01-15T03:56:48;3.70;53.90
76168;DHT22;64927;48.214;16.378;2024-01-15T03:59:14;3.60;54.30
76168;DHT22;64927;48.214;16.378;2024-01-15T04:01:48;3.50;54.60
76168;DHT22;64927;48.214;16.378;2024-01-15T04:04:15;3.50;54.80
76168;DHT22;64927;48.214;16.378;2024-01-15T04:06:40;3.50;54.80
76168;DHT22;64927;48.214;16.378;2024-01-15T04:09:06;3.40;54.70
76168;DHT22;64927;48.214;16.378;2024-01-15T04:11:34;3.40;54.90
76168;DHT22;64927;48.214;16.378;2024-01-15T04:13:59;3.30;55.10
76168;DHT22;64927;48.214;16.378;2024-01-15T04:16:25;3.30;55.10
76168;DHT22;64927;48.214;16.378;2024-01-15T04:18:51;3.40;55.00
76168;DHT22;64927;48.214;16.378;2024-01-15T04:21:17;3.40;55.00
76168;DHT22;64927;48.214;16.378;2024-01-15T04:23:43;3.40;55.30
76168;DHT22;64927;48.214;16.378;2024-01-15T04:26:09;3.50;55.30
76168;DHT22;64927;48.214;16.378;2024-01-15T04:28:37;3.40;55.30
76168;DHT22;64927;48.214;16.378;2024-01-15T04:31:03;3.40;55.60
76168;DHT22;64927;48.214;16.378;2024-01-15T04:33:28;3.40;55.60
76168;DHT22;64927;48.214;16.378;2024-01-15T04:35:54;3.40;55.90
76168;DHT22;64927;48.214;16.378;2024-01-15T04:38:20;3.40;56.10
76168;DHT22;64927;48.214;16.378;2024-01-15T04:40:45;3.30;56.20
76168;DHT22;64927;48.214;16.378;2024-01-15T04:43:11;3.30;56.90
76168;DHT22;64927;48.214;16.378;2024-01-15T04:45:39;3.30;56.40
76168;DHT22;64927;48.214;16.378;2024-01-15T04:48:05;3.30;56.80
76168;DHT22;64927;48.214;16.378;2024-01-15T04:50:32;3.20;57.10
76168;DHT22;64927;48.214;16.378;2024-01-15T04:52:58;3.20;57.20
76168;DHT22;64927;48.214;16.378;2024-01-15T04:55:23;3.10;57.40
76168;DHT22;64927;48.214;16.378;2024-01-15T04:57:49;3.10;57.30
76168;DHT22;64927;48.214;16.378;2024-01-15T05:00:17;3.10;57.50
76168;DHT22;64927;48.214;16.378;2024-01-15T05:02:43;3.10;57.60
76168;DHT22;64927;48.214;16.378;2024-01-15T05:05:08;3.00;57.80
76168;DHT22;64927;48.214;16.378;2024-01-15T05:07:34;2.90;58.00
76168;DHT22;64927;48.214;16.378;2024-01-15T05:10:00;2.90;58.00
76168;DHT22;64927;48.214;16.378;2024-01-15T05:12:28;2.90;57.80
76168;DHT22;64927;48.214;16.378;2024-01-15T05:14:55;2.90;57.60
76168;DHT22;64927;48.214;16.378;2024-01-15T05:17:21;2.90;57.60
76168;DHT22;64927;48.214;16.378;2024-01-15T05:19:47;2.80;57.60
76168;DHT22;64927;48.214;16.378;2024-01-15T05:22:12;2.80;57.50
76168;DHT22;64927;48.214;16.378;2024-01-15T05:24:38;2.80;57.40
76168;DHT22;64927;48.214;16.378;2024-01-15T05:27:04;2.80;57.20
76168;DHT22;64927;48.214;16.378;2024-01-15T05:29:29;2.80;57.10
76168;DHT22;64927;48.214;16.378;2024-01-15T05:31:55;2.80;56.90
76168;DHT22;64927;48.214;16.378;2024-01-15T05:34:20;2.90;56.80
76168;DHT22;64927;48.214;16.378;2024-01-15T05:36:46;2.80;56.70
76168;DHT22;64927;48.214;16.378;2024-01-15T05:39:13;2.90;56.60
76168;DHT22;64927;48.214;16.378;2024-01-15T05:41:38;2.90;56.40
76168;DHT22;64927;48.214;16.378;2024-01-15T05:44:06;3.00;55.80
76168;DHT22;64927;48.214;16.378;2024-01-15T05:46:32;3.00;55.90
76168;DHT22;64927;48.214;16.378;2024-01-15T05:48:57;3.00;56.10
76168;DHT22;64927;48.214;16.378;2024-01-15T05:51:23;2.90;55.80
76168;DHT22;64927;48.214;16.378;2024-01-15T05:53:48;3.00;55.80
76168;DHT22;64927;48.214;16.378;2024-01-15T05:56:14;3.00;55.90
76168;DHT22;64927;48.214;16.378;2024-01-15T05:58:40;3.00;55.70
76168;DHT22;64927;48.214;16.378;2024-01-15T06:01:05;3.00;55.90
76168;DHT22;64927;48.214;16.378;2024-01-15T06:03:31;3.10;55.80
76168;DHT22;64927;48.214;16.378;2024-01-15T06:05:59;3.00;55.90
76168;DHT22;64927;48.214;16.378;2024-01-15T06:08:24;3.00;56.10
76168;DHT22;64927;48.214;16.378;2024-01-15T06:10:52;2.90;56.10
76168;DHT22;64927;48.214;16.378;2024-01-15T06:13:17;3.00;56.00
76168;DHT22;64927;48.214;16.378;2024-01-15T06:15:43;2.90;56.40
76168;DHT22;64927;48.214;16.378;2024-01-15T06:18:08;2.90;56.50
76168;DHT22;64927;48.214;16.378;2024-01-15T06:20:34;3.00;56.40
76168;DHT22;64927;48.214;16.378;2024-01-15T06:22:59;3.00;56.70
76168;DHT22;64927;48.214;16.378;2024-01-15T06:25:25;3.00;56.60
76168;DHT22;64927;48.214;16.378;2024-01-15T06:27:51;3.00;56.80
76168;DHT22;64927;48.214;16.378;2024-01-15T06:30:16;3.10;56.90
76168;DHT22;64927;48.214;16.378;2024-01-15T06:32:44;3.00;57.10
76168;DHT22;64927;48.214;16.378;2024-01-15T06:35:10;3.00;57.30
76168;DHT22;64927;48.214;16.378;2024-01-15T06:37:37;2.90;57.60
76168;DHT22;64927;48.214;16.378;2024-01-15T06:40:02;3.00;57.70
76168;DHT22;64927;48.214;16.378;2024-01-15T06:42:28;3.00;57.50
76168;DHT22;64927;48.214;16.378;2024-01-15T06:44:54;3.00;57.80
76168;DHT22;64927;48.214;16.378;2024-01-15T06:47:22;2.90;58.00
76168;DHT22;64927;48.214;16.378;2024-01-15T06:49:47;2.90;58.10
76168;DHT22;64927;48.214;16.378;2024-01-15T06:52:15;2.90;58.20
76168;DHT22;64927;48.214;16.378;2024-01-15T06:54:41;2.90;58.30
76168;DHT22;64927;48.214;16.378;2024-01-15T06:57:07;2.80;58.30
76168;DHT22;64927;48.214;16.378;2024-01-15T06:59:33;2.80;58.50
76168;DHT22;64927;48.214;16.378;2024-01-15T07:02:00;2.80;58.40
76168;DHT22;64927;48.214;16.378;2024-01-15T07:04:26;2.80;58.40
76168;DHT22;64927;48.214;16.378;2024-01-15T07:06:52;2.80;58.70
76168;DHT22;64927;48.214;16.378;2024-01-15T07:09:18;2.90;58.30
76168;DHT22;64927;48.214;16.378;2024-01-15T07:11:45;2.90;58.00
76168;DHT22;64927;48.214;16.378;2024-01-15T07:14:12;2.80;58.00
76168;DHT22;64927;48.214;16.378;2024-01-15T07:16:37;2.90;57.80
76168;DHT22;64927;48.214;16.378;2024-01-15T07:19:03;2.90;57.60
76168;DHT22;64927;48.214;16.378;2024-01-15T07:21:29;3.00;57.00
76168;DHT22;64927;48.214;16.378;2024-01-15T07:23:55;3.00;56.80
76168;DHT22;64927;48.214;16.378;2024-01-15T07:26:23;3.10;56.80
76168;DHT22;64927;48.214;16.378;2024-01-15T07:28:48;3.10;56.80
76168;DHT22;64927;48.214;16.378;2024-01-15T07:31:17;3.20;56.30
76168;DHT22;64927;48.214;16.378;2024-01-15T07:33:43;3.20;55.80
76168;DHT22;64927;48.214;16.378;2024-01-15T07:36:08;3.20;55.80
76168;DHT22;64927;48.214;16.378;2024-01-15T07:38:36;3.30;55.70
76168;DHT22;64927;48.214;16.378;2024-01-15T07:41:02;3.30;55.70
76168;DHT22;64927;48.214;16.378;2024-01-15T07:43:28;3.30;55.60
76168;DHT22;64927;48.214;16.378;2024-01-15T07:45:53;3.40;55.60
76168;DHT22;64927;48.214;16.378;2024-01-15T07:48:19;3.30;55.60
76168;DHT22;64927;48.214;16.378;2024-01-15T07:50:45;3.40;55.60
76168;DHT22;64927;48.214;16.378;2024-01-15T07:53:11;3.40;55.60
76168;DHT22;64927;48.214;16.378;2024-01-15T07:55:36;3.40;55.70
76168;DHT22;64927;48.214;16.378;2024-01-15T07:58:02;3.50;55.40
76168;DHT22;64927;48.214;16.378;2024-01-15T08:00:30;3.50;56.10
76168;DHT22;64927;48.214;16.378;2024-01-15T08:02:56;3.60;55.60
76168;DHT22;64927;48.214;16.378;2024-01-15T08:05:22;3.60;56.30
76168;DHT22;64927;48.214;16.378;2024-01-15T08:07:47;3.80;55.00
76168;DHT22;64927;48.214;16.378;2024-01-15T08:10:13;3.70;54.90
76168;DHT22;64927;48.214;16.378;2024-01-15T08:12:39;3.70;54.90
76168;DHT22;64927;48.214;16.378;2024-01-15T08:15:05;3.70;55.20
76168;DHT22;64927;48.214;16.378;2024-01-15T08:17:31;3.60;55.40
76168;DHT22;64927;48.214;16.378;2024-01-15T08:19:57;3.60;55.60
76168;DHT22;64927;48.214;16.378;2024-01-15T08:22:23;3.60;55.80
76168;DHT22;64927;48.214;16.378;2024-01-15T08:24:49;3.70;55.60
76168;DHT22;64927;48.214;16.378;2024-01-15T08:27:14;3.70;55.50
76168;DHT22;64927;48.214;16.378;2024-01-15T08:29:40;3.60;55.50
76168;DHT22;64927;48.214;16.378;2024-01-15T08:32:05;3.70;55.30
76168;DHT22;64927;48.214;16.378;2024-01-15T08:34:31;3.70;55.40
76168;DHT22;64927;48.214;16.378;2024-01-15T08:36:57;3.70;55.30
76168;DHT22;64927;48.214;16.378;2024-01-15T08:39:22;3.70;55.50
76168;DHT22;64927;48.214;16.378;2024-01-15T08:41:48;3.80;55.30
76168;DHT22;64927;48.214;16.378;2024-01-15T08:44:13;4.00;54.70
76168;DHT22;64927;48.214;16.378;2024-01-15T08:46:39;4.00;54.30
76168;DHT22;64927;48.214;16.378;2024-01-15T08:49:05;4.10;54.10
76168;DHT22;64927;48.214;16.378;2024-01-15T08:51:31;4.10;54.00
76168;DHT22;64927;48.214;16.378;2024-01-15T08:53:57;4.30;53.90
76168;DHT22;64927;48.214;16.378;2024-01-15T08:56:23;4.50;53.70
76168;DHT22;64927;48.214;16.378;2024-01-15T08:58:49;4.70;52.80
76168;DHT22;64927;48.214;16.378;2024-01-15T09:01:14;4.80;52.30
76168;DHT22;64927;48.214;16.378;2024-01-15T09:03:40;4.90;52.00
76168;DHT22;64927;48.214;16.378;2024-01-15T09:06:08;4.90;51.80
76168;DHT22;64927;48.214;16.378;2024-01-15T09:08:35;4.90;51.60
76168;DHT22;64927;48.214;16.378;2024-01-15T09:11:01;4.90;51.80
76168;DHT22;64927;48.214;16.378;2024-01-15T09:13:28;4.80;51.90
76168;DHT22;64927;48.214;16.378;2024-01-15T09:15:54;4.80;52.10
76168;DHT22;64927;48.214;16.378;2024-01-15T09:18:19;4.70;52.30
76168;DHT22;64927;48.214;16.378;2024-01-15T09:20:45;4.70;52.40
76168;DHT22;64927;48.214;16.378;2024-01-15T09:23:10;4.60;52.50
76168;DHT22;64927;48.214;16.378;2024-01-15T09:25:36;4.50;53.10
76168;DHT22;64927;48.214;16.378;2024-01-15T09:28:02;4.50;53.30
76168;DHT22;64927;48.214;16.378;2024-01-15T09:30:36;4.40;53.40
76168;DHT22;64927;48.214;16.378;2024-01-15T09:33:02;4.20;53.80
76168;DHT22;64927;48.214;16.378;2024-01-15T09:35:27;4.20;54.10
76168;DHT22;64927;48.214;16.378;2024-01-15T09:37:53;4.30;54.20
76168;DHT22;64927;48.214;16.378;2024-01-15T09:40:20;4.30;54.30
76168;DHT22;64927;48.214;16.378;2024-01-15T09:42:46;4.20;54.80
76168;DHT22;64927;48.214;16.378;2024-01-15T09:45:15;4.20;55.10
76168;DHT22;64927;48.214;16.378;2024-01-15T09:47:44;4.30;55.10
76168;DHT22;64927;48.214;16.378;2024-01-15T09:50:09;4.30;55.00
76168;DHT22;64927;48.214;16.378;2024-01-15T09:52:35;4.40;55.00
76168;DHT22;64927;48.214;16.378;2024-01-15T09:55:02;4.40;56.10
76168;DHT22;64927;48.214;16.378;2024-01-15T09:57:31;4.50;55.10
76168;DHT22;64927;48.214;16.378;2024-01-15T09:59:59;4.60;54.80
76168;DHT22;64927;48.214;16.378;2024-01-15T10:02:24;4.70;54.80
76168;DHT22;64927;48.214;16.378;2024-01-15T10:04:50;4.90;54.40
76168;DHT22;64927;48.214;16.378;2024-01-15T10:07:16;4.90;54.00
76168;DHT22;64927;48.214;16.378;2024-01-15T10:09:44;5.00;54.00
76168;DHT22;64927;48.214;16.378;2024-01-15T10:12:11;5.00;54.10
76168;DHT22;64927;48.214;16.378;2024-01-15T10:14:37;4.90;53.70
76168;DHT22;64927;48.214;16.378;2024-01-15T10:17:14;5.10;53.60
76168;DHT22;64927;48.214;16.378;2024-01-15T10:19:46;5.10;53.60
76168;DHT22;64927;48.214;16.378;2024-01-15T10:22:14;5.20;53.50
76168;DHT22;64927;48.214;16.378;2024-01-15T10:24:43;4.80;54.40
76168;DHT22;64927;48.214;16.378;2024-01-15T10:27:09;4.90;54.60
76168;DHT22;64927;48.214;16.378;2024-01-15T10:29:35;4.80;54.40
76168;DHT22;64927;48.214;16.378;2024-01-15T10:32:11;5.00;54.30
76168;DHT22;64927;48.214;16.378;2024-01-15T10:34:40;5.00;54.20
76168;DHT22;64927;48.214;16.378;2024-01-15T10:37:09;4.90;54.30
76168;DHT22;64927;48.214;16.378;2024-01-15T10:39:35;4.90;54.30
76168;DHT22;64927;48.214;16.378;2024-01-15T10:42:02;4.90;54.10
76168;DHT22;64927;48.214;16.378;2024-01-15T10:44:29;4.90;54.20
76168;DHT22;64927;48.214;16.378;2024-01-15T10:46:57;5.00;54.20
76168;DHT22;64927;48.214;16.378;2024-01-15T10:49:23;5.00;54.00
76168;DHT22;64927;48.214;16.378;2024-01-15T10:51:52;5.00;54.00
76168;DHT22;64927;48.214;16.378;2024-01-15T10:54:23;5.10;54.00
76168;DHT22;64927;48.214;16.378;2024-01-15T10:56:50;5.30;53.60
76168;DHT22;64927;48.214;16.378;2024-01-15T10:59:18;5.50;52.80
76168;DHT22;64927;48.214;16.378;2024-01-15T11:01:45;5.50;51.70
76168;DHT22;64927;48.214;16.378;2024-01-15T11:04:12;5.50;51.50
76168;DHT22;64927;48.214;16.378;2024-01-15T11:06:43;5.50;51.60
76168;DHT22;64927;48.214;16.378;2024-01-15T11:09:09;5.50;51.80
76168;DHT22;64927;48.214;16.378;2024-01-15T11:11:42;5.60;51.80
76168;DHT22;64927;48.214;16.378;2024-01-15T11:14:09;5.60;51.70
76168;DHT22;64927;48.214;16.378;2024-01-15T11:16:54;5.60;51.80
76168;DHT22;64927;48.214;16.378;2024-01-15T11:19:21;5.80;51.60
76168;DHT22;64927;48.214;16.378;2024-01-15T11:21:47;5.70;51.80
76168;DHT22;64927;48.214;16.378;2024-01-15T11:24:33;5.70;52.30
76168;DHT22;64927;48.214;16.378;2024-01-15T11:26:59;5.80;52.00
76168;DHT22;64927;48.214;16.378;2024-01-15T11:29:30;5.90;51.30
76168;DHT22;64927;48.214;16.378;2024-01-15T11:31:57;5.90;51.50
76168;DHT22;64927;48.214;16.378;2024-01-15T11:34:53;5.90;51.50
76168;DHT22;64927;48.214;16.378;2024-01-15T11:37:20;6.00;51.50
76168;DHT22;64927;48.214;16.378;2024-01-15T11:39:47;6.00;51.70
76168;DHT22;64927;48.214;16.378;2024-01-15T11:42:13;6.20;51.40
76168;DHT22;64927;48.214;16.378;2024-01-15T11:44:40;6.20;51.10
76168;DHT22;64927;48.214;16.378;2024-01-15T11:47:09;6.20;51.10
76168;DHT22;64927;48.214;16.378;2024-01-15T11:52:11;6.00;51.10
76168;DHT22;64927;48.214;16.378;2024-01-15T11:54:38;6.00;51.40
76168;DHT22;64927;48.214;16.378;2024-01-15T11:57:10;5.90;52.00
76168;DHT22;64927;48.214;16.378;2024-01-15T11:59:41;5.90;52.40
76168;DHT22;64927;48.214;16.378;2024-01-15T12:02:07;6.00;52.40
76168;DHT22;64927;48.214;16.378;2024-01-15T12:04:33;6.10;52.30
76168;DHT22;64927;48.214;16.378;2024-01-15T12:06:58;6.10;52.30
76168;DHT22;64927;48.214;16.378;2024-01-15T12:09:24;6.20;51.80
76168;DHT22;64927;48.214;16.378;2024-01-15T12:12:02;6.20;51.60
76168;DHT22;64927;48.214;16.378;2024-01-15T12:14:31;6.10;51.80
76168;DHT22;64927;48.214;16.378;2024-01-15T12:16:57;5.90;52.30
76168;DHT22;64927;48.214;16.378;2024-01-15T12:19:23;5.90;52.50
76168;DHT22;64927;48.214;16.378;2024-01-15T12:21:51;5.80;53.10
76168;DHT22;64927;48.214;16.378;2024-01-15T12:24:17;5.80;53.10
76168;DHT22;64927;48.214;16.378;2024-01-15T12:26:44;5.70;53.00
76168;DHT22;64927;48.214;16.378;2024-01-15T12:29:11;5.70;53.30
76168;DHT22;64927;48.214;16.378;2024-01-15T12:31:39;5.70;53.40
76168;DHT22;64927;48.214;16.378;2024-01-15T12:34:04;5.70;52.50
76168;DHT22;64927;48.214;16.378;2024-01-15T12:36:31;5.80;52.40
76168;DHT22;64927;48.214;16.378;2024-01-15T12:39:00;5.80;52.50
76168;DHT22;64927;48.214;16.378;2024-01-15T12:41:26;6.00;51.80
76168;DHT22;64927;48.214;16.378;2024-01-15T12:43:51;5.80;52.00
76168;DHT22;64927;48.214;16.378;2024-01-15T12:46:17;5.70;52.10
76168;DHT22;64927;48.214;16.378;2024-01-15T12:48:47;5.70;52.40
76168;DHT22;64927;48.214;16.378;2024-01-15T12:51:13;5.80;52.70
76168;DHT22;64927;48.214;16.378;2024-01-15T12:53:40;6.00;51.90
76168;DHT22;64927;48.214;16.378;2024-01-15T12:56:07;5.90;51.80
76168;DHT22;64927;48.214;16.378;2024-01-15T12:58:35;6.00;52.20
76168;DHT22;64927;48.214;16.378;2024-01-15T13:01:00;6.10;51.70
76168;DHT22;64927;48.214;16.378;2024-01-15T13:03:26;6.00;51.50
76168;DHT22;64927;48.214;16.378;2024-01-15T13:05:52;5.90;51.90
76168;DHT22;64927;48.214;16.378;2024-01-15T13:08:18;5.80;52.50
76168;DHT22;64927;48.214;16.378;2024-01-15T13:10:44;5.70;52.90
76168;DHT22;64927;48.214;16.378;2024-01-15T13:13:09;5.50;53.10
76168;DHT22;64927;48.214;16.378;2024-01-15T13:15:35;5.60;53.20
76168;DHT22;64927;48.214;16.378;2024-01-15T13:18:01;5.60;53.80
76168;DHT22;64927;48.214;16.378;2024-01-15T13:20:27;5.60;52.50
76168;DHT22;64927;48.214;16.378;2024-01-15T13:22:53;5.50;52.50
76168;DHT22;64927;48.214;16.378;2024-01-15T13:25:20;5.60;52.60
76168;DHT22;64927;48.214;16.378;2024-01-15T13:27:46;5.70;51.70
76168;DHT22;64927;48.214;16.378;2024-01-15T13:30:12;5.60;51.90
76168;DHT22;64927;48.214;16.378;2024-01-15T13:32:38;5.60;51.20
76168;DHT22;64927;48.214;16.378;2024-01-15T13:35:04;5.60;51.40
76168;DHT22;64927;48.214;16.378;2024-01-15T13:37:32;5.70;51.10
76168;DHT22;64927;48.214;16.378;2024-01-15T13:39:58;5.70;51.00
76168;DHT22;64927;48.214;16.378;2024-01-15T13:42:23;5.70;50.40
76168;DHT22;64927;48.214;16.378;2024-01-15T13:44:49;5.80;50.30
76168;DHT22;64927;48.214;16.378;2024-01-15T13:47:15;5.90;50.10
76168;DHT22;64927;48.214;16.378;2024-01-15T13:49:41;6.00;49.70
76168;DHT22;64927;48.214;16.378;2024-01-15T13:52:06;6.10;49.60
76168;DHT22;64927;48.214;16.378;2024-01-15T13:54:32;6.10;49.50
76168;DHT22;64927;48.214;16.378;2024-01-15T13:56:58;6.10;49.10
76168;DHT22;64927;48.214;16.378;2024-01-15T13:59:26;6.00;49.40
76168;DHT22;64927;48.214;16.378;2024-01-15T14:01:55;5.90;49.40
76168;DHT22;64927;48.214;16.378;2024-01-15T14:04:20;6.00;49.40
76168;DHT22;64927;48.214;16.378;2024-01-15T14:06:46;6.00;49.30
76168;DHT22;64927;48.214;16.378;2024-01-15T14:09:12;6.00;49.20
76168;DHT22;64927;48.214;16.378;2024-01-15T14:11:39;6.00;49.10
76168;DHT22;64927;48.214;16.378;2024-01-15T14:14:05;5.80;49.10
76168;DHT22;64927;48.214;16.378;2024-01-15T14:16:33;5.80;49.50
76168;DHT22;64927;48.214;16.378;2024-01-15T14:18:59;5.80;49.50
76168;DHT22;64927;48.214;16.378;2024-01-15T14:21:24;5.80;49.30
76168;DHT22;64927;48.214;16.378;2024-01-15T14:23:50;5.70;49.40
76168;DHT22;64927;48.214;16.378;2024-01-15T14:26:15;5.70;49.20
76168;DHT22;64927;48.214;16.378;2024-01-15T14:28:41;5.70;49.30
76168;DHT22;64927;48.214;16.378;2024-01-15T14:31:09;5.60;49.60
76168;DHT22;64927;48.214;16.378;2024-01-15T14:33:35;5.50;49.80
76168;DHT22;64927;48.214;16.378;2024-01-15T14:36:00;5.50;50.00
76168;DHT22;64927;48.214;16.378;2024-01-15T14:38:26;5.40;50.00
76168;DHT22;64927;48.214;16.378;2024-01-15T14:40:52;5.30;50.20
76168;DHT22;64927;48.214;16.378;2024-01-15T14:43:17;5.30;50.70
76168;DHT22;64927;48.214;16.378;2024-01-15T14:45:43;5.20;50.70
76168;DHT22;64927;48.214;16.378;2024-01-15T14:48:09;5.10;51.20
76168;DHT22;64927;48.214;16.378;2024-01-15T14:50:34;5.10;51.40
76168;DHT22;64927;48.214;16.378;2024-01-15T14:53:00;5.10;51.40
76168;DHT22;64927;48.214;16.378;2024-01-15T14:55:28;5.00;51.90
76168;DHT22;64927;48.214;16.378;2024-01-15T14:57:53;4.90;52.10
76168;DHT22;64927;48.214;16.378;2024-01-15T15:00:20;5.00;52.00
76168;DHT22;64927;48.214;16.378;2024-01-15T15:02:45;5.00;52.20
76168;DHT22;64927;48.214;16.378;2024-01-15T15:05:12;5.00;52.30
76168;DHT22;64927;48.214;16.378;2024-01-15T15:07:38;4.90;52.40
76168;DHT22;64927;48.214;16.378;2024-01-15T15:10:07;4.80;52.80
76168;DHT22;64927;48.214;16.378;2024-01-15T15:12:33;4.80;52.70
76168;DHT22;64927;48.214;16.378;2024-01-15T15:14:59;4.90;52.70
76168;DHT22;64927;48.214;16.378;2024-01-15T15:17:24;4.90;52.80
76168;DHT22;64927;48.214;16.378;2024-01-15T15:19:50;4.90;52.80
76168;DHT22;64927;48.214;16.378;2024-01-15T15:22:18;4.80;52.80
76168;DHT22;64927;48.214;16.378;2024-01-15T15:24:44;4.80;52.60
76168;DHT22;64927;48.214;16.378;2024-01-15T15:27:10;4.80;52.50